Aérodrome :
LOGIN :

S'inscrire | Disclaimer

   EN    FR    IT 

 










Légende :    VFR   VFR Marginal   IFR   IFR Intensif   IFR Très Intensif
Visi : 
Plafond : 
>= 8 km
>= 3000ft
5 à 8 km
1000 à 3000 ft
1500m à 5 km
500 à 1000 ft
800 à 1500m
200 à 500 ft
< 800m
< 200 ft
Symboles :   Orages  Brouillard  Fortes neiges  Fortes précipitations  Vent > 20 kt
SIGMETs :   Divers  Orages  Givrage  Turbulence  Onde Orograph.  Cendres Volcan.






- Altitude de l'aérodrome : 352 ft
- Code IATA : ARW


LRAR - Arad International

DERNIER METAR :
  • 280030Z 17010KT CAVOK 02/M01 Q1006

METARs EXPIRÉS :
  • 280000Z 17008KT CAVOK 02/M01 Q1006
  • 272330Z 18008KT CAVOK 02/M01 Q1006
  • 272300Z AUTO 19009KT 9999 NCD 02/M01 Q1006
  • 272230Z 19009KT CAVOK 02/M01 Q1006
  • 272200Z 18007KT CAVOK 02/M02 Q1006

TAF TAF LRAR
Valide du 28 à 00h jusqu'au 28 à 09h UTC


272300Z 2800/2809 19010KT CAVOK
BECMG 2803/2805 5000 -RASN BR BKN015 BKN040
PROB40
TEMPO 2805/2807 1500 SN BKN010 OVC030
BECMG 2807/2809 3000 -RA BR BKN010 OVC030



MET'MAP, la Météo Aéronautique d'un coup d'oeil ! - Copyright ORBIFLY Décembre 2007 - Disclaimer

ORBIFLY MET'MAP TEAM :

Programmation & Développement : Alexandra Zaïnal
Sur une idée originale de : Baudouin d'Aumeries
Assistance à la programmation : Marc-Olivier Méhu
Soutien technique & logistique : Manuel Goepfert

Contact : metmap@orbifly.com




SOURCES & CREDITS :

   NOAA